sensor_id;sensor_type;location;lat;lon;timestamp;temperature;humidity
15844;DHT22;50807;52.436;13.346;2022-12-29T00:00:09;11.60;99.90
15844;DHT22;50807;52.436;13.346;2022-12-29T00:00:42;11.60;99.90
15844;DHT22;50807;52.436;13.346;2022-12-29T00:01:13;11.70;99.90
15844;DHT22;50807;52.436;13.346;2022-12-29T00:01:43;11.60;99.90
15844;DHT22;50807;52.436;13.346;2022-12-29T00:02:15;11.60;99.90
15844;DHT22;50807;52.436;13.346;2022-12-29T00:02:46;11.60;99.90
15844;DHT22;50807;52.436;13.346;2022-12-29T00:03:17;11.70;99.90
15844;DHT22;50807;52.436;13.346;2022-12-29T00:03:48;11.60;99.90
15844;DHT22;50807;52.436;13.346;2022-12-29T00:04:20;11.60;99.90
15844;DHT22;50807;52.436;13.346;2022-12-29T00:04:51;11.70;99.90
15844;DHT22;50807;52.436;13.346;2022-12-29T00:05:23;11.60;99.90
15844;DHT22;50807;52.436;13.346;2022-12-29T00:05:55;11.70;99.90
15844;DHT22;50807;52.436;13.346;2022-12-29T00:06:26;11.70;99.90
15844;DHT22;50807;52.436;13.346;2022-12-29T00:06:58;11.70;99.90
15844;DHT22;50807;52.436;13.346;2022-12-29T00:07:29;11.70;99.90
15844;DHT22;50807;52.436;13.346;2022-12-29T00:08:00;11.70;99.90
15844;DHT22;50807;52.436;13.346;2022-12-29T00:08:31;11.70;99.90
15844;DHT22;50807;52.436;13.346;2022-12-29T00:09:10;11.70;99.90
15844;DHT22;50807;52.436;13.346;2022-12-29T00:09:44;11.70;99.90
15844;DHT22;50807;52.436;13.346;2022-12-29T00:10:15;11.70;99.90
15844;DHT22;50807;52.436;13.346;2022-12-29T00:10:46;11.70;99.90
15844;DHT22;50807;52.436;13.346;2022-12-29T00:11:19;11.70;99.90
15844;DHT22;50807;52.436;13.346;2022-12-29T00:11:52;11.70;99.90
15844;DHT22;50807;52.436;13.346;2022-12-29T00:12:24;11.70;99.90
15844;DHT22;50807;52.436;13.346;2022-12-29T00:12:54;11.70;99.90
15844;DHT22;50807;52.436;13.346;2022-12-29T00:13:44;11.70;99.90
15844;DHT22;50807;52.436;13.346;2022-12-29T00:14:33;11.70;99.90
15844;DHT22;50807;52.436;13.346;2022-12-29T00:15:23;11.70;99.90
15844;DHT22;50807;52.436;13.346;2022-12-29T00:16:08;11.70;99.90
15844;DHT22;50807;52.436;13.346;2022-12-29T00:16:41;11.70;99.90
15844;DHT22;50807;52.436;13.346;2022-12-29T00:17:13;11.70;99.90
15844;DHT22;50807;52.436;13.346;2022-12-29T00:17:44;11.70;99.90
15844;DHT22;50807;52.436;13.346;2022-12-29T00:18:16;11.70;99.90
15844;DHT22;50807;52.436;13.346;2022-12-29T00:18:46;11.70;99.90
15844;DHT22;50807;52.436;13.346;2022-12-29T00:19:17;11.70;99.90
15844;DHT22;50807;52.436;13.346;2022-12-29T00:20:07;11.70;99.90
15844;DHT22;50807;52.436;13.346;2022-12-29T00:20:57;11.70;99.90
15844;DHT22;50807;52.436;13.346;2022-12-29T00:21:46;11.70;99.90
15844;DHT22;50807;52.436;13.346;2022-12-29T00:22:35;11.80;99.90
15844;DHT22;50807;52.436;13.346;2022-12-29T00:23:24;11.80;99.90
15844;DHT22;50807;52.436;13.346;2022-12-29T00:24:16;11.80;99.90
15844;DHT22;50807;52.436;13.346;2022-12-29T00:25:09;11.80;99.90
15844;DHT22;50807;52.436;13.346;2022-12-29T00:26:02;11.80;99.90
15844;DHT22;50807;52.436;13.346;2022-12-29T00:26:55;11.80;99.90
15844;DHT22;50807;52.436;13.346;2022-12-29T00:27:47;11.80;99.90
15844;DHT22;50807;52.436;13.346;2022-12-29T00:28:36;11.80;99.90
15844;DHT22;50807;52.436;13.346;2022-12-29T00:29:25;11.80;99.90
15844;DHT22;50807;52.436;13.346;2022-12-29T00:30:16;11.80;99.90
15844;DHT22;50807;52.436;13.346;2022-12-29T00:31:07;11.80;99.90
15844;DHT22;50807;52.436;13.346;2022-12-29T00:32:00;11.80;99.90
15844;DHT22;50807;52.436;13.346;2022-12-29T00:32:50;11.80;99.90
15844;DHT22;50807;52.436;13.346;2022-12-29T00:33:38;11.80;99.90
15844;DHT22;50807;52.436;13.346;2022-12-29T00:34:27;11.80;99.90
15844;DHT22;50807;52.436;13.346;2022-12-29T00:35:23;11.80;99.90
15844;DHT22;50807;52.436;13.346;2022-12-29T00:36:01;11.80;99.90
15844;DHT22;50807;52.436;13.346;2022-12-29T00:36:37;11.80;99.90
15844;DHT22;50807;52.436;13.346;2022-12-29T00:37:10;11.80;99.90
15844;DHT22;50807;52.436;13.346;2022-12-29T00:37:43;11.80;99.90
15844;DHT22;50807;52.436;13.346;2022-12-29T00:38:38;11.80;99.90
15844;DHT22;50807;52.436;13.346;2022-12-29T00:39:31;11.80;99.90
15844;DHT22;50807;52.436;13.346;2022-12-29T00:40:21;11.80;99.90
15844;DHT22;50807;52.436;13.346;2022-12-29T00:41:10;11.80;99.90
15844;DHT22;50807;52.436;13.346;2022-12-29T00:42:13;11.80;99.90
15844;DHT22;50807;52.436;13.346;2022-12-29T00:43:03;11.90;99.90
15844;DHT22;50807;52.436;13.346;2022-12-29T00:43:52;11.90;99.90
15844;DHT22;50807;52.436;13.346;2022-12-29T00:44:36;11.90;99.90
15844;DHT22;50807;52.436;13.346;2022-12-29T00:45:07;11.80;99.90
15844;DHT22;50807;52.436;13.346;2022-12-29T00:45:40;11.90;99.90
15844;DHT22;50807;52.436;13.346;2022-12-29T00:46:12;11.80;99.90
15844;DHT22;50807;52.436;13.346;2022-12-29T00:46:44;11.80;99.90
15844;DHT22;50807;52.436;13.346;2022-12-29T00:47:14;11.90;99.90
15844;DHT22;50807;52.436;13.346;2022-12-29T00:47:46;11.80;99.90
15844;DHT22;50807;52.436;13.346;2022-12-29T00:48:17;11.80;99.90
15844;DHT22;50807;52.436;13.346;2022-12-29T00:49:09;11.80;99.90
15844;DHT22;50807;52.436;13.346;2022-12-29T00:49:59;11.80;99.90
15844;DHT22;50807;52.436;13.346;2022-12-29T00:50:30;11.80;99.90
15844;DHT22;50807;52.436;13.346;2022-12-29T00:51:01;11.80;99.90
15844;DHT22;50807;52.436;13.346;2022-12-29T00:51:32;11.80;99.90
15844;DHT22;50807;52.436;13.346;2022-12-29T00:52:05;11.80;99.90
15844;DHT22;50807;52.436;13.346;2022-12-29T00:52:37;11.80;99.90
15844;DHT22;50807;52.436;13.346;2022-12-29T00:53:08;11.80;99.90
15844;DHT22;50807;52.436;13.346;2022-12-29T00:53:39;11.80;99.90
15844;DHT22;50807;52.436;13.346;2022-12-29T00:54:10;11.80;99.90
15844;DHT22;50807;52.436;13.346;2022-12-29T00:54:41;11.80;99.90
15844;DHT22;50807;52.436;13.346;2022-12-29T00:55:15;11.80;99.90
15844;DHT22;50807;52.436;13.346;2022-12-29T00:55:47;11.80;99.90
15844;DHT22;50807;52.436;13.346;2022-12-29T00:56:18;11.80;99.90
15844;DHT22;50807;52.436;13.346;2022-12-29T00:56:50;11.80;99.90
15844;DHT22;50807;52.436;13.346;2022-12-29T00:57:22;11.80;99.90
15844;DHT22;50807;52.436;13.346;2022-12-29T00:57:53;11.80;99.90
15844;DHT22;50807;52.436;13.346;2022-12-29T00:58:26;11.80;99.90
15844;DHT22;50807;52.436;13.346;2022-12-29T00:59:00;11.80;99.90
15844;DHT22;50807;52.436;13.346;2022-12-29T00:59:32;11.80;99.90
15844;DHT22;50807;52.436;13.346;2022-12-29T01:00:05;11.80;99.90
15844;DHT22;50807;52.436;13.346;2022-12-29T01:00:38;11.80;99.90
15844;DHT22;50807;52.436;13.346;2022-12-29T01:01:09;11.80;99.90
15844;DHT22;50807;52.436;13.346;2022-12-29T01:01:40;11.80;99.90
15844;DHT22;50807;52.436;13.346;2022-12-29T01:02:11;11.80;99.90
15844;DHT22;50807;52.436;13.346;2022-12-29T01:02:43;11.80;99.90
15844;DHT22;50807;52.436;13.346;2022-12-29T01:03:14;11.80;99.90
15844;DHT22;50807;52.436;13.346;2022-12-29T01:03:44;11.80;99.90
15844;DHT22;50807;52.436;13.346;2022-12-29T01:04:15;11.80;99.90
15844;DHT22;50807;52.436;13.346;2022-12-29T01:04:47;11.80;99.90
15844;DHT22;50807;52.436;13.346;2022-12-29T01:05:18;11.80;99.90
15844;DHT22;50807;52.436;13.346;2022-12-29T01:05:49;11.80;99.90
15844;DHT22;50807;52.436;13.346;2022-12-29T01:06:19;11.80;99.90
15844;DHT22;50807;52.436;13.346;2022-12-29T01:06:52;11.80;99.90
15844;DHT22;50807;52.436;13.346;2022-12-29T01:07:23;11.80;99.90
15844;DHT22;50807;52.436;13.346;2022-12-29T01:07:55;11.80;99.90
15844;DHT22;50807;52.436;13.346;2022-12-29T01:08:26;11.80;99.90
15844;DHT22;50807;52.436;13.346;2022-12-29T01:08:58;11.80;99.90
15844;DHT22;50807;52.436;13.346;2022-12-29T01:09:47;11.80;99.90
15844;DHT22;50807;52.436;13.346;2022-12-29T01:10:37;11.80;99.90
15844;DHT22;50807;52.436;13.346;2022-12-29T01:11:11;11.80;99.90
15844;DHT22;50807;52.436;13.346;2022-12-29T01:11:43;11.80;99.90
15844;DHT22;50807;52.436;13.346;2022-12-29T01:12:14;11.80;99.90
15844;DHT22;50807;52.436;13.346;2022-12-29T01:12:45;11.80;99.90
15844;DHT22;50807;52.436;13.346;2022-12-29T01:13:17;11.80;99.90
15844;DHT22;50807;52.436;13.346;2022-12-29T01:13:49;11.80;99.90
15844;DHT22;50807;52.436;13.346;2022-12-29T01:14:20;11.80;99.90
15844;DHT22;50807;52.436;13.346;2022-12-29T01:14:52;11.80;99.90
15844;DHT22;50807;52.436;13.346;2022-12-29T01:15:24;11.80;99.90
15844;DHT22;50807;52.436;13.346;2022-12-29T01:15:56;11.80;99.90
15844;DHT22;50807;52.436;13.346;2022-12-29T01:16:27;11.80;99.90
15844;DHT22;50807;52.436;13.346;2022-12-29T01:16:58;11.80;99.90
15844;DHT22;50807;52.436;13.346;2022-12-29T01:17:30;11.80;99.90
15844;DHT22;50807;52.436;13.346;2022-12-29T01:18:00;11.80;99.90
15844;DHT22;50807;52.436;13.346;2022-12-29T01:18:31;11.80;99.90
15844;DHT22;50807;52.436;13.346;2022-12-29T01:19:04;11.80;99.90
15844;DHT22;50807;52.436;13.346;2022-12-29T01:19:35;11.80;99.90
15844;DHT22;50807;52.436;13.346;2022-12-29T01:20:06;11.80;99.90
15844;DHT22;50807;52.436;13.346;2022-12-29T01:20:39;11.80;99.90
15844;DHT22;50807;52.436;13.346;2022-12-29T01:21:09;11.80;99.90
15844;DHT22;50807;52.436;13.346;2022-12-29T01:21:40;11.80;99.90
15844;DHT22;50807;52.436;13.346;2022-12-29T01:22:11;11.80;99.90
15844;DHT22;50807;52.436;13.346;2022-12-29T01:22:43;11.80;99.90
15844;DHT22;50807;52.436;13.346;2022-12-29T01:23:14;11.80;99.90
15844;DHT22;50807;52.436;13.346;2022-12-29T01:23:45;11.80;99.90
15844;DHT22;50807;52.436;13.346;2022-12-29T01:24:18;11.80;99.90
15844;DHT22;50807;52.436;13.346;2022-12-29T01:24:50;11.80;99.90
15844;DHT22;50807;52.436;13.346;2022-12-29T01:25:20;11.80;99.90
15844;DHT22;50807;52.436;13.346;2022-12-29T01:25:52;11.80;99.90
15844;DHT22;50807;52.436;13.346;2022-12-29T01:26:24;11.80;99.90
15844;DHT22;50807;52.436;13.346;2022-12-29T01:26:55;11.80;99.90
15844;DHT22;50807;52.436;13.346;2022-12-29T01:27:27;11.80;99.90
15844;DHT22;50807;52.436;13.346;2022-12-29T01:27:58;11.80;99.90
15844;DHT22;50807;52.436;13.346;2022-12-29T01:28:29;11.80;99.90
15844;DHT22;50807;52.436;13.346;2022-12-29T01:29:00;11.80;99.90
15844;DHT22;50807;52.436;13.346;2022-12-29T01:29:31;11.80;99.90
15844;DHT22;50807;52.436;13.346;2022-12-29T01:30:02;11.80;99.90
15844;DHT22;50807;52.436;13.346;2022-12-29T01:30:35;11.80;99.90
15844;DHT22;50807;52.436;13.346;2022-12-29T01:31:06;11.80;99.90
15844;DHT22;50807;52.436;13.346;2022-12-29T01:31:37;11.80;99.90
15844;DHT22;50807;52.436;13.346;2022-12-29T01:32:09;11.80;99.90
15844;DHT22;50807;52.436;13.346;2022-12-29T01:32:39;11.80;99.90
15844;DHT22;50807;52.436;13.346;2022-12-29T01:33:10;11.80;99.90
15844;DHT22;50807;52.436;13.346;2022-12-29T01:33:43;11.80;99.90
15844;DHT22;50807;52.436;13.346;2022-12-29T01:34:14;11.80;99.90
15844;DHT22;50807;52.436;13.346;2022-12-29T01:34:45;11.80;99.90
15844;DHT22;50807;52.436;13.346;2022-12-29T01:35:16;11.80;99.90
15844;DHT22;50807;52.436;13.346;2022-12-29T01:35:47;11.80;99.90
15844;DHT22;50807;52.436;13.346;2022-12-29T01:36:18;11.90;99.90
15844;DHT22;50807;52.436;13.346;2022-12-29T01:36:50;11.80;99.90
15844;DHT22;50807;52.436;13.346;2022-12-29T01:37:21;11.80;99.90
15844;DHT22;50807;52.436;13.346;2022-12-29T01:37:52;11.80;99.90
15844;DHT22;50807;52.436;13.346;2022-12-29T01:38:24;11.90;99.90
15844;DHT22;50807;52.436;13.346;2022-12-29T01:38:54;11.90;99.90
15844;DHT22;50807;52.436;13.346;2022-12-29T01:39:25;11.90;99.90
15844;DHT22;50807;52.436;13.346;2022-12-29T01:39:57;11.90;99.90
15844;DHT22;50807;52.436;13.346;2022-12-29T01:40:28;11.90;99.90
15844;DHT22;50807;52.436;13.346;2022-12-29T01:40:58;11.90;99.90
15844;DHT22;50807;52.436;13.346;2022-12-29T01:41:32;11.90;99.90
15844;DHT22;50807;52.436;13.346;2022-12-29T01:42:03;11.90;99.90
15844;DHT22;50807;52.436;13.346;2022-12-29T01:42:33;11.90;99.90
15844;DHT22;50807;52.436;13.346;2022-12-29T01:43:08;11.90;99.90
15844;DHT22;50807;52.436;13.346;2022-12-29T01:43:43;11.90;99.90
15844;DHT22;50807;52.436;13.346;2022-12-29T01:45:28;11.90;99.90
15844;DHT22;50807;52.436;13.346;2022-12-29T01:45:59;11.90;99.90
15844;DHT22;50807;52.436;13.346;2022-12-29T01:46:32;11.90;99.90
15844;DHT22;50807;52.436;13.346;2022-12-29T01:47:08;11.90;99.90
15844;DHT22;50807;52.436;13.346;2022-12-29T01:47:44;11.90;99.90
15844;DHT22;50807;52.436;13.346;2022-12-29T01:48:19;11.90;99.90
15844;DHT22;50807;52.436;13.346;2022-12-29T01:48:53;11.90;99.90
15844;DHT22;50807;52.436;13.346;2022-12-29T01:49:28;11.90;99.90
15844;DHT22;50807;52.436;13.346;2022-12-29T01:50:03;11.90;99.90
15844;DHT22;50807;52.436;13.346;2022-12-29T01:50:41;11.90;99.90
15844;DHT22;50807;52.436;13.346;2022-12-29T01:51:15;12.00;99.90
15844;DHT22;50807;52.436;13.346;2022-12-29T01:51:53;12.00;99.90
15844;DHT22;50807;52.436;13.346;2022-12-29T01:52:31;11.90;99.90
15844;DHT22;50807;52.436;13.346;2022-12-29T01:53:07;11.90;99.90
15844;DHT22;50807;52.436;13.346;2022-12-29T01:53:40;11.90;99.90
15844;DHT22;50807;52.436;13.346;2022-12-29T01:54:19;11.90;99.90
15844;DHT22;50807;52.436;13.346;2022-12-29T01:54:55;12.00;99.90
15844;DHT22;50807;52.436;13.346;2022-12-29T01:55:31;11.90;99.90
15844;DHT22;50807;52.436;13.346;2022-12-29T01:56:10;11.90;99.90
15844;DHT22;50807;52.436;13.346;2022-12-29T01:56:44;11.90;99.90
15844;DHT22;50807;52.436;13.346;2022-12-29T01:57:20;11.90;99.90
15844;DHT22;50807;52.436;13.346;2022-12-29T01:57:56;12.00;99.90
15844;DHT22;50807;52.436;13.346;2022-12-29T01:58:35;11.90;99.90
15844;DHT22;50807;52.436;13.346;2022-12-29T01:59:17;11.90;99.90
15844;DHT22;50807;52.436;13.346;2022-12-29T01:59:56;11.90;99.90
15844;DHT22;50807;52.436;13.346;2022-12-29T02:00:30;11.90;99.90
15844;DHT22;50807;52.436;13.346;2022-12-29T02:01:02;11.90;99.90
15844;DHT22;50807;52.436;13.346;2022-12-29T02:01:33;11.90;99.90
15844;DHT22;50807;52.436;13.346;2022-12-29T02:02:04;11.90;99.90
15844;DHT22;50807;52.436;13.346;2022-12-29T02:02:36;11.90;99.90
15844;DHT22;50807;52.436;13.346;2022-12-29T02:03:09;12.00;99.90
15844;DHT22;50807;52.436;13.346;2022-12-29T02:03:41;11.90;99.90
15844;DHT22;50807;52.436;13.346;2022-12-29T02:04:12;11.90;99.90
15844;DHT22;50807;52.436;13.346;2022-12-29T02:04:44;11.90;99.90
15844;DHT22;50807;52.436;13.346;2022-12-29T02:05:20;11.90;99.90
15844;DHT22;50807;52.436;13.346;2022-12-29T02:05:59;11.90;99.90
15844;DHT22;50807;52.436;13.346;2022-12-29T02:06:39;11.90;99.90
15844;DHT22;50807;52.436;13.346;2022-12-29T02:07:17;11.90;99.90
15844;DHT22;50807;52.436;13.346;2022-12-29T02:07:50;11.90;99.90
15844;DHT22;50807;52.436;13.346;2022-12-29T02:08:26;11.90;99.90
15844;DHT22;50807;52.436;13.346;2022-12-29T02:08:58;11.90;99.90
15844;DHT22;50807;52.436;13.346;2022-12-29T02:09:30;11.90;99.90
15844;DHT22;50807;52.436;13.346;2022-12-29T02:10:03;11.90;99.90
15844;DHT22;50807;52.436;13.346;2022-12-29T02:10:35;12.00;99.90
15844;DHT22;50807;52.436;13.346;2022-12-29T02:11:07;11.90;99.90
15844;DHT22;50807;52.436;13.346;2022-12-29T02:11:39;11.90;99.90
15844;DHT22;50807;52.436;13.346;2022-12-29T02:12:11;11.90;99.90
15844;DHT22;50807;52.436;13.346;2022-12-29T02:12:42;12.00;99.90
15844;DHT22;50807;52.436;13.346;2022-12-29T02:13:15;11.90;99.90
15844;DHT22;50807;52.436;13.346;2022-12-29T02:13:46;11.90;99.90
15844;DHT22;50807;52.436;13.346;2022-12-29T02:14:18;12.00;99.90
15844;DHT22;50807;52.436;13.346;2022-12-29T02:14:51;11.90;99.90
15844;DHT22;50807;52.436;13.346;2022-12-29T02:15:35;11.90;99.90
15844;DHT22;50807;52.436;13.346;2022-12-29T02:16:29;11.90;99.90
15844;DHT22;50807;52.436;13.346;2022-12-29T02:17:17;12.00;99.90
15844;DHT22;50807;52.436;13.346;2022-12-29T02:18:06;12.00;99.90
15844;DHT22;50807;52.436;13.346;2022-12-29T02:18:54;12.00;99.90
15844;DHT22;50807;52.436;13.346;2022-12-29T02:20:23;12.00;99.90
15844;DHT22;50807;52.436;13.346;2022-12-29T02:21:39;12.00;99.90
15844;DHT22;50807;52.436;13.346;2022-12-29T02:22:24;12.10;99.90
15844;DHT22;50807;52.436;13.346;2022-12-29T02:23:14;12.10;99.90
15844;DHT22;50807;52.436;13.346;2022-12-29T02:25:48;12.10;99.90
15844;DHT22;50807;52.436;13.346;2022-12-29T02:26:58;12.10;99.90
15844;DHT22;50807;52.436;13.346;2022-12-29T02:27:55;12.10;99.90
15844;DHT22;50807;52.436;13.346;2022-12-29T02:30:34;12.20;99.90
15844;DHT22;50807;52.436;13.346;2022-12-29T02:31:17;12.20;99.90
15844;DHT22;50807;52.436;13.346;2022-12-29T02:31:58;12.20;99.90
15844;DHT22;50807;52.436;13.346;2022-12-29T02:32:37;12.20;99.90
15844;DHT22;50807;52.436;13.346;2022-12-29T02:33:34;12.20;99.90
15844;DHT22;50807;52.436;13.346;2022-12-29T02:34:24;12.20;99.90
15844;DHT22;50807;52.436;13.346;2022-12-29T02:35:09;12.20;99.90
15844;DHT22;50807;52.436;13.346;2022-12-29T02:35:56;12.10;99.90
15844;DHT22;50807;52.436;13.346;2022-12-29T02:36:42;12.20;99.90
15844;DHT22;50807;52.436;13.346;2022-12-29T02:37:21;12.20;99.90
15844;DHT22;50807;52.436;13.346;2022-12-29T02:38:03;12.20;99.90
15844;DHT22;50807;52.436;13.346;2022-12-29T02:38:50;12.10;99.90
15844;DHT22;50807;52.436;13.346;2022-12-29T02:39:34;12.20;99.90
15844;DHT22;50807;52.436;13.346;2022-12-29T02:40:17;12.20;99.90
15844;DHT22;50807;52.436;13.346;2022-12-29T02:41:00;12.20;99.90
15844;DHT22;50807;52.436;13.346;2022-12-29T02:41:44;12.20;99.90
15844;DHT22;50807;52.436;13.346;2022-12-29T02:42:33;12.20;99.90
15844;DHT22;50807;52.436;13.346;2022-12-29T02:43:14;12.20;99.90
15844;DHT22;50807;52.436;13.346;2022-12-29T02:43:56;12.20;99.90
15844;DHT22;50807;52.436;13.346;2022-12-29T02:44:43;12.20;99.90
15844;DHT22;50807;52.436;13.346;2022-12-29T02:45:34;12.20;99.90
15844;DHT22;50807;52.436;13.346;2022-12-29T02:46:20;12.20;99.90
15844;DHT22;50807;52.436;13.346;2022-12-29T02:47:01;12.20;99.90
15844;DHT22;50807;52.436;13.346;2022-12-29T02:47:43;12.20;99.90
15844;DHT22;50807;52.436;13.346;2022-12-29T02:48:22;12.20;99.90
15844;DHT22;50807;52.436;13.346;2022-12-29T02:49:09;12.20;99.90
15844;DHT22;50807;52.436;13.346;2022-12-29T02:49:47;12.20;99.90
15844;DHT22;50807;52.436;13.346;2022-12-29T02:50:27;12.30;99.90
15844;DHT22;50807;52.436;13.346;2022-12-29T02:51:07;12.30;99.90
15844;DHT22;50807;52.436;13.346;2022-12-29T02:51:48;12.30;99.90
15844;DHT22;50807;52.436;13.346;2022-12-29T02:52:26;12.30;99.90
15844;DHT22;50807;52.436;13.346;2022-12-29T02:53:04;12.30;99.90
15844;DHT22;50807;52.436;13.346;2022-12-29T02:53:37;12.30;99.90
15844;DHT22;50807;52.436;13.346;2022-12-29T02:54:27;12.30;99.90
15844;DHT22;50807;52.436;13.346;2022-12-29T02:55:14;12.30;99.90
15844;DHT22;50807;52.436;13.346;2022-12-29T02:55:48;12.30;99.90
15844;DHT22;50807;52.436;13.346;2022-12-29T02:56:20;12.30;99.90
15844;DHT22;50807;52.436;13.346;2022-12-29T02:56:51;12.30;99.90
15844;DHT22;50807;52.436;13.346;2022-12-29T02:57:33;12.30;99.90
15844;DHT22;50807;52.436;13.346;2022-12-29T02:58:16;12.30;99.90
15844;DHT22;50807;52.436;13.346;2022-12-29T02:58:48;12.30;99.90
15844;DHT22;50807;52.436;13.346;2022-12-29T02:59:20;12.40;99.90
15844;DHT22;50807;52.436;13.346;2022-12-29T02:59:55;12.40;99.90
15844;DHT22;50807;52.436;13.346;2022-12-29T03:00:28;12.40;99.90
15844;DHT22;50807;52.436;13.346;2022-12-29T03:01:13;12.40;99.90
15844;DHT22;50807;52.436;13.346;2022-12-29T03:03:16;12.40;99.90
15844;DHT22;50807;52.436;13.346;2022-12-29T03:04:12;12.40;99.90
15844;DHT22;50807;52.436;13.346;2022-12-29T03:05:05;12.40;99.90
15844;DHT22;50807;52.436;13.346;2022-12-29T03:06:07;12.50;99.90
15844;DHT22;50807;52.436;13.346;2022-12-29T03:06:52;12.50;99.90
15844;DHT22;50807;52.436;13.346;2022-12-29T03:07:33;12.50;99.90
15844;DHT22;50807;52.436;13.346;2022-12-29T03:08:19;12.60;99.90
15844;DHT22;50807;52.436;13.346;2022-12-29T03:09:01;12.60;99.90
15844;DHT22;50807;52.436;13.346;2022-12-29T03:09:46;12.50;99.90
15844;DHT22;50807;52.436;13.346;2022-12-29T03:10:30;12.60;99.90
15844;DHT22;50807;52.436;13.346;2022-12-29T03:11:09;12.60;99.90
15844;DHT22;50807;52.436;13.346;2022-12-29T03:11:59;12.60;99.90
15844;DHT22;50807;52.436;13.346;2022-12-29T03:12:44;12.60;99.90
15844;DHT22;50807;52.436;13.346;2022-12-29T03:13:44;12.60;99.90
15844;DHT22;50807;52.436;13.346;2022-12-29T03:14:52;12.60;99.90
15844;DHT22;50807;52.436;13.346;2022-12-29T03:15:53;12.70;99.90
15844;DHT22;50807;52.436;13.346;2022-12-29T03:16:37;12.70;99.90
15844;DHT22;50807;52.436;13.346;2022-12-29T03:17:20;12.70;99.90
15844;DHT22;50807;52.436;13.346;2022-12-29T03:18:00;12.70;99.90
15844;DHT22;50807;52.436;13.346;2022-12-29T03:18:41;12.70;99.90
15844;DHT22;50807;52.436;13.346;2022-12-29T03:19:22;12.70;99.90
15844;DHT22;50807;52.436;13.346;2022-12-29T03:20:01;12.70;99.90
15844;DHT22;50807;52.436;13.346;2022-12-29T03:20:41;12.70;99.90
15844;DHT22;50807;52.436;13.346;2022-12-29T03:21:24;12.70;99.90
15844;DHT22;50807;52.436;13.346;2022-12-29T03:22:20;12.70;99.90
15844;DHT22;50807;52.436;13.346;2022-12-29T03:23:00;12.70;99.90
15844;DHT22;50807;52.436;13.346;2022-12-29T03:23:34;12.70;99.90
15844;DHT22;50807;52.436;13.346;2022-12-29T03:24:09;12.70;99.90
15844;DHT22;50807;52.436;13.346;2022-12-29T03:24:42;12.70;99.90
15844;DHT22;50807;52.436;13.346;2022-12-29T03:25:21;12.70;99.90
15844;DHT22;50807;52.436;13.346;2022-12-29T03:25:58;12.70;99.90
15844;DHT22;50807;52.436;13.346;2022-12-29T03:26:33;12.80;99.90
15844;DHT22;50807;52.436;13.346;2022-12-29T03:27:05;12.70;99.90
15844;DHT22;50807;52.436;13.346;2022-12-29T03:27:41;12.70;99.90
15844;DHT22;50807;52.436;13.346;2022-12-29T03:28:20;12.80;99.90
15844;DHT22;50807;52.436;13.346;2022-12-29T03:28:53;12.70;99.90
15844;DHT22;50807;52.436;13.346;2022-12-29T03:29:30;12.70;99.90
15844;DHT22;50807;52.436;13.346;2022-12-29T03:30:07;12.70;99.90
15844;DHT22;50807;52.436;13.346;2022-12-29T03:30:40;12.70;99.90
15844;DHT22;50807;52.436;13.346;2022-12-29T03:31:13;12.80;99.90
15844;DHT22;50807;52.436;13.346;2022-12-29T03:31:48;12.80;99.90
15844;DHT22;50807;52.436;13.346;2022-12-29T03:32:23;12.80;99.90
15844;DHT22;50807;52.436;13.346;2022-12-29T03:33:01;12.80;99.90
15844;DHT22;50807;52.436;13.346;2022-12-29T03:33:36;12.80;99.90
15844;DHT22;50807;52.436;13.346;2022-12-29T03:34:10;12.80;99.90
15844;DHT22;50807;52.436;13.346;2022-12-29T03:34:43;12.80;99.90
15844;DHT22;50807;52.436;13.346;2022-12-29T03:35:18;12.80;99.90
15844;DHT22;50807;52.436;13.346;2022-12-29T03:35:57;12.80;99.90
15844;DHT22;50807;52.436;13.346;2022-12-29T03:36:36;12.80;99.90
15844;DHT22;50807;52.436;13.346;2022-12-29T03:37:13;12.80;99.90
15844;DHT22;50807;52.436;13.346;2022-12-29T03:37:52;12.80;99.90
15844;DHT22;50807;52.436;13.346;2022-12-29T03:38:31;12.80;99.90
15844;DHT22;50807;52.436;13.346;2022-12-29T03:39:10;12.80;99.90
15844;DHT22;50807;52.436;13.346;2022-12-29T03:39:42;12.90;99.90
15844;DHT22;50807;52.436;13.346;2022-12-29T03:40:14;12.80;99.90
15844;DHT22;50807;52.436;13.346;2022-12-29T03:40:49;12.90;99.90
15844;DHT22;50807;52.436;13.346;2022-12-29T03:41:27;12.90;99.90
15844;DHT22;50807;52.436;13.346;2022-12-29T03:42:04;12.90;99.90
15844;DHT22;50807;52.436;13.346;2022-12-29T03:42:41;12.90;99.90
15844;DHT22;50807;52.436;13.346;2022-12-29T03:43:12;12.90;99.90
15844;DHT22;50807;52.436;13.346;2022-12-29T03:43:43;12.90;99.90
15844;DHT22;50807;52.436;13.346;2022-12-29T03:44:15;12.90;99.90
15844;DHT22;50807;52.436;13.346;2022-12-29T03:44:46;12.90;99.90
15844;DHT22;50807;52.436;13.346;2022-12-29T03:45:17;12.90;99.90
15844;DHT22;50807;52.436;13.346;2022-12-29T03:45:48;12.90;99.90
15844;DHT22;50807;52.436;13.346;2022-12-29T03:46:19;12.90;99.90
15844;DHT22;50807;52.436;13.346;2022-12-29T03:46:51;12.90;99.90
15844;DHT22;50807;52.436;13.346;2022-12-29T03:47:24;12.90;99.90
15844;DHT22;50807;52.436;13.346;2022-12-29T03:47:55;12.90;99.90
15844;DHT22;50807;52.436;13.346;2022-12-29T03:48:26;12.90;99.90
15844;DHT22;50807;52.436;13.346;2022-12-29T03:48:57;12.90;99.90
15844;DHT22;50807;52.436;13.346;2022-12-29T03:49:28;12.90;99.90
15844;DHT22;50807;52.436;13.346;2022-12-29T03:49:59;12.90;99.90
15844;DHT22;50807;52.436;13.346;2022-12-29T03:50:31;12.90;99.90
15844;DHT22;50807;52.436;13.346;2022-12-29T03:51:02;12.90;99.90
15844;DHT22;50807;52.436;13.346;2022-12-29T03:51:33;13.00;99.90
15844;DHT22;50807;52.436;13.346;2022-12-29T03:52:05;13.00;99.90
15844;DHT22;50807;52.436;13.346;2022-12-29T03:52:36;13.00;99.90
15844;DHT22;50807;52.436;13.346;2022-12-29T03:53:07;13.00;99.90
15844;DHT22;50807;52.436;13.346;2022-12-29T03:53:39;13.00;99.90
15844;DHT22;50807;52.436;13.346;2022-12-29T03:54:09;13.00;99.90
15844;DHT22;50807;52.436;13.346;2022-12-29T03:54:40;13.00;99.90
15844;DHT22;50807;52.436;13.346;2022-12-29T03:55:12;13.00;99.90
15844;DHT22;50807;52.436;13.346;2022-12-29T03:55:43;13.00;99.90
15844;DHT22;50807;52.436;13.346;2022-12-29T03:56:14;13.00;99.90
15844;DHT22;50807;52.436;13.346;2022-12-29T03:56:46;13.00;99.90
15844;DHT22;50807;52.436;13.346;2022-12-29T03:57:16;13.00;99.90
15844;DHT22;50807;52.436;13.346;2022-12-29T03:57:47;13.00;99.90